Terminal Aerodrome Forecast
Issued by NWS

Home | Current Version | Previous Version | Text Only | Print | Product List | Glossary On
Versions: 1 2 3 4 5 6 7 8 9 10 11 12 13
723
FTUS43 KGRR 192322
TAFJXN
TAF
KJXN 192322Z 2000/2024 31010KT P6SM BKN250
     FM200400 10006KT P6SM BKN250
     FM201000 13007KT 4SM BR BKN200
     FM201500 13010KT P6SM OVC200=

USA.gov is the U.S. government's official web portal to all federal, state and local government web resources and services.